Time;durP1;ratioP1;P1;durP2;ratioP2;P2;SDS_P1;SDS_P2;PMS_P1;PMS_P2;Temp;Humidity;BMP_temperature;BMP_pressure;BME280_temperature;BME280_humidity;BME280_pressure;Samples;Min_cycle;Max_cycle;Signal;HPM_P1;HPM_P2
2022/10/14 00:01:31;;;;;;;19.65;8.93;;;;;;;;;;4996864;28;20719;-77
2022/10/14 00:03:58;;;;;;;13.55;7.65;;;;;;;;;;4992426;28;20165;-77
2022/10/14 00:06:26;;;;;;;15.82;7.45;;;;;;;;;;5001172;28;20034;-78
2022/10/14 00:08:52;;;;;;;14.80;7.88;;;;;;;;;;4994603;28;20445;-77
2022/10/14 00:11:21;;;;;;;12.98;7.40;;;;;;;;;;4994050;28;20085;-77
2022/10/14 00:13:47;;;;;;;16.27;8.45;;;;;;;;;;4992659;28;20056;-77
2022/10/14 00:16:19;;;;;;;16.20;8.30;;;;;;;;;;5009812;28;20042;-77
2022/10/14 00:18:45;;;;;;;16.17;7.78;;;;;;;;;;4998664;28;20042;-77
2022/10/14 00:21:11;;;;;;;14.02;7.43;;;;;;;;;;5009940;28;20496;-77
2022/10/14 00:23:37;;;;;;;16.80;8.07;;;;;;;;;;5001125;28;20026;-77
2022/10/14 00:26:04;;;;;;;16.00;7.78;;;;;;;;;;5004923;28;20117;-77
2022/10/14 00:28:30;;;;;;;14.48;8.57;;;;;;;;;;5006922;28;20041;-77
2022/10/14 00:30:57;;;;;;;19.55;9.02;;;;;;;;;;5000078;28;20034;-77
2022/10/14 00:33:23;;;;;;;14.98;8.00;;;;;;;;;;5000179;28;20044;-77
2022/10/14 00:35:53;;;;;;;16.67;9.40;;;;;;;;;;5008611;28;20061;-77
2022/10/14 00:38:19;;;;;;;17.30;9.75;;;;;;;;;;5009794;28;20034;-77
2022/10/14 00:40:45;;;;;;;17.08;11.85;;;;;;;;;;4998637;28;20695;-77
2022/10/14 00:43:13;;;;;;;23.80;11.85;;;;;;;;;;5003780;28;20034;-77
2022/10/14 00:45:39;;;;;;;22.77;11.77;;;;;;;;;;4996815;28;20034;-77
2022/10/14 00:48:05;;;;;;;19.88;10.82;;;;;;;;;;4989922;28;20684;-77
2022/10/14 00:50:32;;;;;;;23.70;13.10;;;;;;;;;;5006566;28;20540;-77
2022/10/14 00:52:58;;;;;;;17.83;9.55;;;;;;;;;;5005044;28;20034;-77
2022/10/14 00:55:25;;;;;;;20.05;10.60;;;;;;;;;;5004769;28;20389;-77
2022/10/14 00:57:51;;;;;;;18.35;8.43;;;;;;;;;;5008062;28;20045;-77
2022/10/14 01:00:18;;;;;;;20.92;9.70;;;;;;;;;;5001465;28;20034;-77
2022/10/14 01:02:44;;;;;;;24.52;10.65;;;;;;;;;;5005733;28;20493;-77
2022/10/14 01:05:12;;;;;;;21.98;11.68;;;;;;;;;;5003703;28;20420;-77
2022/10/14 01:08:02;;;;;;;20.45;11.70;;;;;;;;;;5006007;28;20033;-77
2022/10/14 01:10:43;;;;;;;26.33;12.80;;;;;;;;;;5002129;28;20702;-77
2022/10/14 01:13:28;;;;;;;17.15;12.38;;;;;;;;;;4992708;28;20549;-77
2022/10/14 01:16:09;;;;;;;19.42;10.55;;;;;;;;;;5005512;28;20137;-77
2022/10/14 01:18:41;;;;;;;20.42;10.43;;;;;;;;;;4993138;28;20061;-77
2022/10/14 01:21:07;;;;;;;;;;;;;;;;;;5004533;28;20034;-77
2022/10/14 01:23:33;;;;;;;18.77;8.43;;;;;;;;;;5008148;28;19924;-77
2022/10/14 01:26:05;;;;;;;22.67;11.52;;;;;;;;;;5007254;28;20060;-77
2022/10/14 01:28:44;;;;;;;17.92;9.85;;;;;;;;;;4997255;28;20386;-77
2022/10/14 01:31:14;;;;;;;21.00;10.45;;;;;;;;;;4996625;28;20041;-77
2022/10/14 01:33:43;;;;;;;19.58;13.57;;;;;;;;;;5008219;28;20038;-77
2022/10/14 01:36:09;;;;;;;21.42;8.73;;;;;;;;;;4998119;28;20083;-77
2022/10/14 01:38:40;;;;;;;14.40;7.53;;;;;;;;;;5006990;28;20032;-77
2022/10/14 01:41:09;;;;;;;14.93;6.63;;;;;;;;;;5000443;28;20099;-77
2022/10/14 01:43:37;;;;;;;20.95;7.95;;;;;;;;;;4999151;28;20034;-77
2022/10/14 01:46:05;;;;;;;15.48;7.68;;;;;;;;;;5008766;28;20081;-77
2022/10/14 01:48:33;;;;;;;16.23;8.80;;;;;;;;;;5003682;28;20045;-77
2022/10/14 01:51:00;;;;;;;17.02;8.23;;;;;;;;;;5007173;28;20064;-77
2022/10/14 01:53:31;;;;;;;14.63;7.70;;;;;;;;;;5005853;28;20088;-78
2022/10/14 01:55:58;;;;;;;20.30;9.77;;;;;;;;;;4998693;28;20044;-77
2022/10/14 01:58:25;;;;;;;22.50;11.45;;;;;;;;;;5003686;28;20080;-77
2022/10/14 02:00:52;;;;;;;15.95;9.45;;;;;;;;;;5000295;28;20126;-77
2022/10/14 02:03:18;;;;;;;18.55;8.98;;;;;;;;;;5005609;28;20033;-77
2022/10/14 02:05:44;;;;;;;20.05;10.63;;;;;;;;;;5012220;28;20713;-77
2022/10/14 02:08:33;;;;;;;13.85;7.45;;;;;;;;;;5004625;28;20034;-77
2022/10/14 02:11:03;;;;;;;20.85;9.48;;;;;;;;;;5006826;28;20040;-77
2022/10/14 02:13:38;;;;;;;15.48;8.00;;;;;;;;;;5003677;28;20037;-77
2022/10/14 02:16:19;;;;;;;20.42;9.90;;;;;;;;;;5010405;28;20050;-76
2022/10/14 02:18:48;;;;;;;15.60;8.73;;;;;;;;;;5010902;28;20480;-77
2022/10/14 02:21:22;;;;;;;19.30;9.57;;;;;;;;;;5002946;28;20149;-77
2022/10/14 02:23:54;;;;;;;14.70;8.02;;;;;;;;;;5009813;28;20384;-77
2022/10/14 02:26:20;;;;;;;14.95;7.80;;;;;;;;;;5000470;28;20580;-77
2022/10/14 02:28:47;;;;;;;13.05;7.22;;;;;;;;;;5003868;28;20401;-77
2022/10/14 02:31:15;;;;;;;17.38;6.20;;;;;;;;;;5007780;28;20045;-77
2022/10/14 02:33:44;;;;;;;16.83;7.22;;;;;;;;;;5009608;28;20136;-77
2022/10/14 02:36:11;;;;;;;13.80;6.72;;;;;;;;;;5001473;28;20052;-77
2022/10/14 02:38:38;;;;;;;13.98;7.35;;;;;;;;;;5011173;28;20045;-77
2022/10/14 02:41:06;;;;;;;18.13;7.07;;;;;;;;;;5010068;28;20069;-77
2022/10/14 02:43:32;;;;;;;12.88;7.90;;;;;;;;;;5009569;28;20162;-77
2022/10/14 02:45:59;;;;;;;15.07;8.13;;;;;;;;;;5006744;28;20477;-78
2022/10/14 02:48:25;;;;;;;17.10;10.02;;;;;;;;;;5009566;28;20060;-77
2022/10/14 02:50:51;;;;;;;15.80;8.68;;;;;;;;;;5009678;28;20634;-77
2022/10/14 02:53:17;;;;;;;15.25;7.47;;;;;;;;;;5006763;28;20044;-77
2022/10/14 02:55:43;;;;;;;16.92;7.30;;;;;;;;;;4998559;28;20065;-77
2022/10/14 02:58:09;;;;;;;17.85;7.28;;;;;;;;;;5010292;28;20057;-77
2022/10/14 03:00:35;;;;;;;13.07;6.30;;;;;;;;;;5011641;28;20476;-77
2022/10/14 03:03:01;;;;;;;13.80;6.00;;;;;;;;;;5010805;28;20029;-77
2022/10/14 03:05:27;;;;;;;20.27;7.50;;;;;;;;;;5008989;28;20026;-77
2022/10/14 03:07:53;;;;;;;11.50;6.80;;;;;;;;;;5011295;28;20030;-77
2022/10/14 03:10:19;;;;;;;17.80;8.63;;;;;;;;;;5008341;28;20076;-77
2022/10/14 03:12:45;;;;;;;17.17;9.15;;;;;;;;;;5011013;28;20415;-77
2022/10/14 03:15:12;;;;;;;18.42;8.85;;;;;;;;;;5000324;28;20593;-77
2022/10/14 03:17:38;;;;;;;18.30;7.93;;;;;;;;;;4980591;28;20026;-77
2022/10/14 03:20:05;;;;;;;11.88;8.73;;;;;;;;;;4986036;28;20045;-77
2022/10/14 03:22:31;;;;;;;16.55;8.77;;;;;;;;;;4992468;28;20418;-77
2022/10/14 03:24:57;;;;;;;16.08;8.68;;;;;;;;;;4990485;28;20032;-77
2022/10/14 03:27:23;;;;;;;13.15;7.93;;;;;;;;;;4983682;28;20030;-77
2022/10/14 03:29:49;;;;;;;14.73;8.18;;;;;;;;;;4991339;28;20705;-77
2022/10/14 03:32:15;;;;;;;14.45;8.38;;;;;;;;;;4981491;28;20041;-77
2022/10/14 03:34:41;;;;;;;15.80;7.78;;;;;;;;;;4993304;28;20046;-77
2022/10/14 03:37:07;;;;;;;17.50;7.32;;;;;;;;;;5003494;28;20267;-77
2022/10/14 03:39:33;;;;;;;14.63;8.15;;;;;;;;;;4993053;28;20801;-77
2022/10/14 03:41:59;;;;;;;18.42;8.20;;;;;;;;;;4990250;28;20037;-76
2022/10/14 03:44:25;;;;;;;13.95;6.80;;;;;;;;;;4988640;28;20035;-77
2022/10/14 03:46:51;;;;;;;18.40;7.45;;;;;;;;;;4987534;28;20149;-77
2022/10/14 03:49:17;;;;;;;14.55;8.23;;;;;;;;;;4987529;28;20496;-77
2022/10/14 03:51:43;;;;;;;17.52;8.68;;;;;;;;;;4998527;28;20034;-77
2022/10/14 03:54:09;;;;;;;20.17;8.48;;;;;;;;;;4988414;28;20070;-77
2022/10/14 03:56:35;;;;;;;15.70;7.20;;;;;;;;;;4990140;28;20034;-77
2022/10/14 03:59:01;;;;;;;15.27;7.78;;;;;;;;;;4992225;28;20030;-77
2022/10/14 04:01:27;;;;;;;14.43;7.68;;;;;;;;;;4986172;28;20068;-77
2022/10/14 04:03:53;;;;;;;13.35;7.45;;;;;;;;;;4993719;28;20092;-77
2022/10/14 04:06:19;;;;;;;13.18;6.80;;;;;;;;;;4977046;28;20490;-77
2022/10/14 04:08:45;;;;;;;14.35;6.78;;;;;;;;;;4994871;28;20034;-77
2022/10/14 04:11:11;;;;;;;14.77;7.78;;;;;;;;;;4988079;28;20659;-77
2022/10/14 04:13:37;;;;;;;10.50;6.45;;;;;;;;;;4994060;28;20371;-77
2022/10/14 04:16:04;;;;;;;13.48;7.20;;;;;;;;;;5003826;28;20045;-77
2022/10/14 04:18:30;;;;;;;12.75;6.70;;;;;;;;;;5006032;28;20081;-77
2022/10/14 04:20:59;;;;;;;11.40;7.47;;;;;;;;;;5006035;28;20034;-77
2022/10/14 04:23:25;;;;;;;19.33;8.95;;;;;;;;;;5006785;28;20928;-77
2022/10/14 04:25:51;;;;;;;16.05;8.45;;;;;;;;;;5009910;28;20040;-77
2022/10/14 04:28:17;;;;;;;16.90;8.45;;;;;;;;;;5008764;28;20044;-77
2022/10/14 04:30:43;;;;;;;13.88;7.90;;;;;;;;;;5007686;28;20030;-77
2022/10/14 04:33:09;;;;;;;15.45;7.93;;;;;;;;;;5008539;28;20037;-77
2022/10/14 04:35:35;;;;;;;15.15;7.60;;;;;;;;;;5007664;28;20034;-77
2022/10/14 04:38:01;;;;;;;18.83;7.80;;;;;;;;;;5004261;28;20595;-77
2022/10/14 04:40:27;;;;;;;12.50;7.07;;;;;;;;;;5005623;28;20036;-77
2022/10/14 04:42:57;;;;;;;14.75;8.23;;;;;;;;;;5006217;28;20122;-77
2022/10/14 04:45:24;;;;;;;16.80;9.02;;;;;;;;;;5004305;28;20042;-77
2022/10/14 04:47:50;;;;;;;17.48;9.23;;;;;;;;;;4999376;28;20385;-77
2022/10/14 04:50:16;;;;;;;17.10;8.50;;;;;;;;;;5005344;28;20033;-77
2022/10/14 04:52:42;;;;;;;15.88;8.43;;;;;;;;;;5000046;28;20474;-77
2022/10/14 04:55:08;;;;;;;14.40;8.68;;;;;;;;;;4998868;28;20042;-77
2022/10/14 04:57:35;;;;;;;10.18;7.78;;;;;;;;;;5001993;28;20034;-77
2022/10/14 05:00:01;;;;;;;12.23;7.43;;;;;;;;;;5005964;28;20037;-77
2022/10/14 05:02:27;;;;;;;12.35;7.72;;;;;;;;;;5004576;28;20065;-77
2022/10/14 05:04:53;;;;;;;15.73;8.35;;;;;;;;;;5002598;28;20045;-77
2022/10/14 05:07:19;;;;;;;15.63;9.48;;;;;;;;;;5009003;28;20038;-77
2022/10/14 05:09:45;;;;;;;19.73;10.43;;;;;;;;;;5000014;28;20450;-77
2022/10/14 05:12:13;;;;;;;16.35;9.77;;;;;;;;;;5003355;28;20113;-77
2022/10/14 05:14:39;;;;;;;18.15;9.05;;;;;;;;;;4995634;28;20145;-77
2022/10/14 05:17:05;;;;;;;20.88;11.25;;;;;;;;;;4975210;28;20126;-77
2022/10/14 05:19:31;;;;;;;14.82;9.13;;;;;;;;;;4989231;28;20022;-77
2022/10/14 05:21:57;;;;;;;23.45;12.40;;;;;;;;;;4983564;28;20041;-77
2022/10/14 05:24:23;;;;;;;17.75;9.95;;;;;;;;;;4988780;28;20114;-77
2022/10/14 05:26:49;;;;;;;18.13;11.07;;;;;;;;;;4977109;28;20228;-76
2022/10/14 05:29:15;;;;;;;19.80;11.95;;;;;;;;;;4984994;28;20030;-77
2022/10/14 05:31:41;;;;;;;15.95;9.65;;;;;;;;;;4988661;28;20045;-77
2022/10/14 05:34:07;;;;;;;15.15;9.00;;;;;;;;;;4981994;28;20035;-77
2022/10/14 05:36:33;;;;;;;18.50;10.07;;;;;;;;;;4990259;28;20038;-77
2022/10/14 05:38:58;;;;;;;15.02;9.80;;;;;;;;;;5001409;28;20731;-77
2022/10/14 05:41:25;;;;;;;17.13;10.18;;;;;;;;;;4990274;28;20045;-76
2022/10/14 05:43:51;;;;;;;20.25;12.35;;;;;;;;;;4993155;28;20031;-76
2022/10/14 05:46:17;;;;;;;17.02;9.63;;;;;;;;;;4988481;28;20616;-76
2022/10/14 05:48:43;;;;;;;13.70;7.72;;;;;;;;;;4987542;28;20038;-77
2022/10/14 05:51:09;;;;;;;16.52;9.60;;;;;;;;;;4994503;28;20034;-77
2022/10/14 05:53:37;;;;;;;17.90;8.95;;;;;;;;;;4994157;28;20030;-77
2022/10/14 05:56:04;;;;;;;16.98;9.60;;;;;;;;;;4986248;28;20047;-77
2022/10/14 05:58:30;;;;;;;21.17;12.18;;;;;;;;;;4991822;28;20038;-77
2022/10/14 06:01:04;;;;;;;22.88;10.05;;;;;;;;;;4992349;28;20035;-77
2022/10/14 06:03:30;;;;;;;17.55;9.40;;;;;;;;;;4989486;28;20022;-77
2022/10/14 06:05:56;;;;;;;16.05;8.90;;;;;;;;;;4996880;28;20081;-77
2022/10/14 06:08:23;;;;;;;22.92;9.20;;;;;;;;;;4989211;28;20037;-77
2022/10/14 06:10:49;;;;;;;21.67;8.55;;;;;;;;;;4994861;28;20038;-77
2022/10/14 06:13:15;;;;;;;15.68;8.55;;;;;;;;;;4984194;28;20076;-77
2022/10/14 06:15:41;;;;;;;19.95;8.27;;;;;;;;;;5002468;28;20038;-77
2022/10/14 06:18:07;;;;;;;21.15;9.05;;;;;;;;;;5008416;28;20022;-77
2022/10/14 06:20:33;;;;;;;19.83;10.65;;;;;;;;;;5006332;28;21010;-77
2022/10/14 06:22:59;;;;;;;19.40;10.20;;;;;;;;;;5007249;28;20065;-77
2022/10/14 06:25:25;;;;;;;15.02;8.45;;;;;;;;;;5009468;28;20125;-77
2022/10/14 06:27:51;;;;;;;22.05;9.82;;;;;;;;;;5010353;28;20065;-77
2022/10/14 06:30:17;;;;;;;15.88;8.57;;;;;;;;;;5010920;28;20042;-77
2022/10/14 06:32:43;;;;;;;17.30;9.50;;;;;;;;;;5005629;28;20045;-77
2022/10/14 06:35:10;;;;;;;17.17;8.77;;;;;;;;;;5007622;28;20425;-77
2022/10/14 06:37:37;;;;;;;18.23;10.02;;;;;;;;;;5011105;28;20030;-77
2022/10/14 06:40:04;;;;;;;18.20;8.25;;;;;;;;;;5010248;28;20080;-77
2022/10/14 06:42:30;;;;;;;20.42;10.98;;;;;;;;;;5002778;28;20105;-77
2022/10/14 06:44:56;;;;;;;19.55;9.20;;;;;;;;;;5008568;28;20108;-77
2022/10/14 06:47:22;;;;;;;16.90;11.25;;;;;;;;;;5009489;28;20437;-77
2022/10/14 06:49:48;;;;;;;17.00;10.30;;;;;;;;;;5005168;28;20029;-76
2022/10/14 06:52:14;;;;;;;20.45;10.77;;;;;;;;;;5006708;28;20468;-77
2022/10/14 06:54:40;;;;;;;19.52;8.30;;;;;;;;;;5008729;28;20040;-77
2022/10/14 06:57:06;;;;;;;13.73;6.93;;;;;;;;;;5008642;28;20112;-77
2022/10/14 06:59:32;;;;;;;13.60;7.55;;;;;;;;;;5009959;28;20054;-77
2022/10/14 07:01:58;;;;;;;15.32;7.72;;;;;;;;;;5008016;28;20481;-77
2022/10/14 07:04:24;;;;;;;12.27;6.57;;;;;;;;;;5008034;28;20022;-76
2022/10/14 07:06:50;;;;;;;18.42;8.88;;;;;;;;;;5005820;28;20077;-77
2022/10/14 07:09:16;;;;;;;15.90;8.98;;;;;;;;;;5005878;28;20045;-77
2022/10/14 07:11:42;;;;;;;16.90;10.48;;;;;;;;;;5006819;28;20072;-77
2022/10/14 07:14:09;;;;;;;18.60;11.80;;;;;;;;;;5007716;28;20045;-77
2022/10/14 07:16:35;;;;;;;19.98;10.50;;;;;;;;;;5009391;28;20057;-77
2022/10/14 07:19:01;;;;;;;17.33;9.82;;;;;;;;;;5010011;28;20029;-77
2022/10/14 07:21:27;;;;;;;22.27;9.98;;;;;;;;;;5008960;28;20034;-77
2022/10/14 07:23:54;;;;;;;24.15;11.25;;;;;;;;;;5002378;28;20092;-76
2022/10/14 07:26:20;;;;;;;20.48;9.75;;;;;;;;;;5008015;28;20034;-77
2022/10/14 07:28:46;;;;;;;20.70;10.90;;;;;;;;;;5006866;28;20036;-77
2022/10/14 07:31:12;;;;;;;23.75;10.63;;;;;;;;;;4994713;28;20042;-77
2022/10/14 07:33:39;;;;;;;16.67;9.00;;;;;;;;;;4998817;28;20034;-76
2022/10/14 07:36:07;;;;;;;18.48;9.27;;;;;;;;;;5009402;28;20045;-77
2022/10/14 07:38:33;;;;;;;17.38;8.40;;;;;;;;;;5002708;28;20026;-77
2022/10/14 07:41:03;;;;;;;18.13;9.20;;;;;;;;;;5004264;28;20049;-77
2022/10/14 07:43:30;;;;;;;16.50;8.05;;;;;;;;;;4999455;28;20875;-77
2022/10/14 07:46:01;;;;;;;13.07;7.15;;;;;;;;;;5009056;28;20042;-78
2022/10/14 07:48:27;;;;;;;13.35;6.97;;;;;;;;;;5004609;28;20650;-77
2022/10/14 07:50:54;;;;;;;13.93;7.07;;;;;;;;;;5008483;28;20061;-77
2022/10/14 07:53:20;;;;;;;15.77;6.82;;;;;;;;;;4998091;28;20032;-77
2022/10/14 07:55:52;;;;;;;14.43;6.97;;;;;;;;;;5009393;28;20036;-77
2022/10/14 07:58:22;;;;;;;17.13;7.20;;;;;;;;;;5007639;28;20350;-77
2022/10/14 08:00:48;;;;;;;12.73;6.57;;;;;;;;;;5007346;28;20053;-77
2022/10/14 08:03:14;;;;;;;12.77;7.05;;;;;;;;;;5004128;28;20033;-77
2022/10/14 08:05:41;;;;;;;11.45;7.28;;;;;;;;;;5008481;28;20027;-77
2022/10/14 08:08:07;;;;;;;14.35;7.15;;;;;;;;;;5005964;28;20869;-77
2022/10/14 08:10:33;;;;;;;13.32;6.75;;;;;;;;;;5006840;28;20092;-77
2022/10/14 08:12:59;;;;;;;17.85;6.43;;;;;;;;;;5001063;28;20037;-77
2022/10/14 08:15:29;;;;;;;12.77;6.85;;;;;;;;;;4998545;28;20097;-77
2022/10/14 08:17:55;;;;;;;13.32;6.80;;;;;;;;;;4999982;28;20085;-77
2022/10/14 08:20:21;;;;;;;15.73;6.25;;;;;;;;;;5007505;28;20029;-77
2022/10/14 08:22:47;;;;;;;14.25;7.07;;;;;;;;;;4996854;28;20140;-77
2022/10/14 08:25:13;;;;;;;13.30;6.18;;;;;;;;;;5008138;28;20137;-77
2022/10/14 08:27:39;;;;;;;14.18;6.57;;;;;;;;;;5007867;28;20038;-77
2022/10/14 08:30:06;;;;;;;17.60;7.28;;;;;;;;;;5004743;28;20041;-77
2022/10/14 08:32:32;;;;;;;11.63;6.10;;;;;;;;;;5005369;28;20092;-77
2022/10/14 08:34:58;;;;;;;15.38;7.00;;;;;;;;;;5009169;28;20497;-77
2022/10/14 08:37:24;;;;;;;16.30;7.20;;;;;;;;;;5006106;28;20030;-77
2022/10/14 08:39:50;;;;;;;16.05;6.85;;;;;;;;;;5001858;28;20050;-77
2022/10/14 08:42:39;;;;;;;14.18;6.55;;;;;;;;;;5001805;28;20096;-77
2022/10/14 08:45:16;;;;;;;15.27;6.60;;;;;;;;;;4991673;28;20049;-77
2022/10/14 08:47:44;;;;;;;17.27;6.68;;;;;;;;;;5007441;28;20496;-77
2022/10/14 08:50:20;;;;;;;15.68;7.38;;;;;;;;;;5002902;28;20072;-77
2022/10/14 08:52:49;;;;;;;14.95;6.95;;;;;;;;;;5002058;28;20030;-77
2022/10/14 08:55:21;;;;;;;11.27;5.78;;;;;;;;;;5008537;28;20844;-77
2022/10/14 08:57:47;;;;;;;;;;;;;;;;;;5006911;28;20022;-77
2022/10/14 09:00:14;;;;;;;13.88;6.30;;;;;;;;;;5007065;28;19917;-77
2022/10/14 09:02:43;;;;;;;14.25;5.22;;;;;;;;;;5007646;28;20030;-77
2022/10/14 09:05:14;;;;;;;14.32;5.25;;;;;;;;;;4999947;28;20026;-77
2022/10/14 09:07:40;;;;;;;15.60;6.00;;;;;;;;;;5008464;28;20036;-77
2022/10/14 09:10:11;;;;;;;11.93;5.38;;;;;;;;;;5005404;28;20060;-77
2022/10/14 09:12:39;;;;;;;12.07;5.80;;;;;;;;;;5003628;28;20072;-77
2022/10/14 09:15:17;;;;;;;13.70;5.25;;;;;;;;;;4990768;28;20051;-77
2022/10/14 09:17:52;;;;;;;12.35;4.80;;;;;;;;;;4983453;28;20129;-77
2022/10/14 09:20:20;;;;;;;13.13;5.22;;;;;;;;;;4976535;28;20515;-78
2022/10/14 09:22:55;;;;;;;12.65;5.22;;;;;;;;;;4989201;28;20022;-77
2022/10/14 09:25:21;;;;;;;15.68;7.53;;;;;;;;;;4984660;28;20038;-77
2022/10/14 09:27:47;;;;;;;13.23;5.95;;;;;;;;;;4991277;28;20038;-77
2022/10/14 09:30:15;;;;;;;16.63;5.78;;;;;;;;;;4988934;28;20034;-77
2022/10/14 09:32:43;;;;;;;12.20;6.18;;;;;;;;;;4989969;28;20034;-77
2022/10/14 09:35:18;;;;;;;13.55;4.53;;;;;;;;;;4988192;28;20031;-77
2022/10/14 09:37:44;;;;;;;10.35;4.50;;;;;;;;;;4989271;28;20057;-77
2022/10/14 09:40:10;;;;;;;12.13;5.10;;;;;;;;;;4986527;28;20091;-77
2022/10/14 09:42:47;;;;;;;12.75;5.25;;;;;;;;;;4977903;28;20046;-77
2022/10/14 09:45:18;;;;;;;11.38;4.63;;;;;;;;;;4997296;28;20507;-77
2022/10/14 09:47:56;;;;;;;13.48;5.13;;;;;;;;;;4984528;28;20037;-77
2022/10/14 09:50:34;;;;;;;15.65;5.18;;;;;;;;;;4985873;28;20065;-78
2022/10/14 09:53:02;;;;;;;10.95;4.40;;;;;;;;;;4992824;28;20038;-77
2022/10/14 09:55:28;;;;;;;11.25;4.80;;;;;;;;;;4986657;28;20162;-77
2022/10/14 09:58:02;;;;;;;9.65;4.40;;;;;;;;;;4983208;28;20385;-77
2022/10/14 10:00:29;;;;;;;10.40;3.80;;;;;;;;;;4985072;28;20058;-77
2022/10/14 10:02:55;;;;;;;9.13;4.20;;;;;;;;;;4986093;28;20089;-77
2022/10/14 10:05:25;;;;;;;10.63;4.18;;;;;;;;;;4985862;28;20034;-77
2022/10/14 10:08:14;;;;;;;12.70;4.35;;;;;;;;;;4985162;28;20035;-77
2022/10/14 10:10:40;;;;;;;12.00;4.18;;;;;;;;;;4985110;28;20048;-77
2022/10/14 10:13:22;;;;;;;8.00;3.38;;;;;;;;;;4984151;28;20105;-77
2022/10/14 10:15:57;;;;;;;13.52;4.00;;;;;;;;;;4979438;28;20039;-77
2022/10/14 10:18:23;;;;;;;16.52;5.10;;;;;;;;;;4983686;28;20023;-77
2022/10/14 10:21:06;;;;;;;11.20;5.28;;;;;;;;;;4985319;28;20378;-77
2022/10/14 10:23:33;;;;;;;11.38;4.13;;;;;;;;;;4989443;28;20034;-77
2022/10/14 10:26:35;;;;;;;10.40;3.90;;;;;;;;;;4986387;28;21747;-77
2022/10/14 10:29:03;;;;;;;11.20;4.47;;;;;;;;;;4929033;29;20131;-77
2022/10/14 10:31:35;;;;;;;12.82;5.00;;;;;;;;;;4979011;28;20054;-77
2022/10/14 10:34:01;;;;;;;;;;;;;;;;;;4986907;28;20733;-77
2022/10/14 10:36:30;;;;;;;12.35;4.85;;;;;;;;;;4990091;28;19922;-77
2022/10/14 10:39:09;;;;;;;10.85;4.88;;;;;;;;;;4990340;28;20038;-77
2022/10/14 10:41:57;;;;;;;14.75;4.53;;;;;;;;;;4989334;28;20804;-77
2022/10/14 10:44:46;;;;;;;9.13;3.97;;;;;;;;;;4990888;28;20036;-77
2022/10/14 10:47:32;;;;;;;10.23;4.00;;;;;;;;;;4986779;28;20073;-77
2022/10/14 10:50:14;;;;;;;11.98;4.13;;;;;;;;;;4987155;28;20054;-77
2022/10/14 10:52:40;;;;;;;12.87;3.77;;;;;;;;;;4987905;28;20038;-77
2022/10/14 10:55:15;;;;;;;9.20;3.80;;;;;;;;;;4985426;28;20037;-78
2022/10/14 10:58:00;;;;;;;8.55;3.72;;;;;;;;;;4985437;28;20034;-78
2022/10/14 11:00:28;;;;;;;9.05;3.97;;;;;;;;;;4980078;28;20086;-77
2022/10/14 11:02:58;;;;;;;11.23;4.47;;;;;;;;;;4988399;28;20030;-78
2022/10/14 11:05:37;;;;;;;10.10;3.75;;;;;;;;;;4988807;28;20034;-78
2022/10/14 11:13:44;;;;;;;14.18;4.13;;;;;;;;;;4987990;28;20501;-77
2022/10/14 11:16:15;;;;;;;14.95;4.30;;;;;;;;;;5010505;28;20469;-77
2022/10/14 11:18:44;;;;;;;11.00;3.27;;;;;;;;;;5001670;28;20030;-77
2022/10/14 11:21:10;;;;;;;10.02;2.88;;;;;;;;;;5010583;28;20034;-77
2022/10/14 11:23:36;;;;;;;7.40;2.92;;;;;;;;;;4997631;28;20030;-78
2022/10/14 11:26:09;;;;;;;8.02;2.55;;;;;;;;;;5010616;28;20033;-78
2022/10/14 11:28:54;;;;;;;9.00;2.72;;;;;;;;;;5007731;28;20057;-77
2022/10/14 11:31:50;;;;;;;8.75;2.17;;;;;;;;;;5004683;28;20465;-77
2022/10/14 11:34:28;;;;;;;7.88;2.58;;;;;;;;;;4996960;28;20383;-77
2022/10/14 11:37:10;;;;;;;10.25;2.90;;;;;;;;;;5008263;28;20049;-78
2022/10/14 11:39:45;;;;;;;6.40;2.63;;;;;;;;;;5006685;28;20032;-78
2022/10/14 11:42:24;;;;;;;6.32;2.72;;;;;;;;;;5008164;28;20114;-77
2022/10/14 11:45:16;;;;;;;9.30;2.67;;;;;;;;;;5003012;28;20410;-78
2022/10/14 11:47:44;;;;;;;10.98;2.67;;;;;;;;;;5003681;28;20042;-77
2022/10/14 11:50:23;;;;;;;9.27;2.95;;;;;;;;;;5001900;28;20053;-77
2022/10/14 11:52:53;;;;;;;7.60;2.47;;;;;;;;;;5004115;28;20500;-77
2022/10/14 11:55:27;;;;;;;7.32;2.47;;;;;;;;;;5004151;28;20153;-78
2022/10/14 11:57:53;;;;;;;10.20;2.50;;;;;;;;;;4998016;28;20373;-78
2022/10/14 12:00:20;;;;;;;9.45;2.80;;;;;;;;;;4995936;28;20034;-78
2022/10/14 12:02:46;;;;;;;8.32;2.90;;;;;;;;;;5006540;28;20025;-77
2022/10/14 12:05:12;;;;;;;8.60;3.10;;;;;;;;;;5002402;28;20038;-77
2022/10/14 12:07:41;;;;;;;9.55;2.50;;;;;;;;;;5004731;28;20156;-77
2022/10/14 12:10:34;;;;;;;6.85;2.33;;;;;;;;;;5006579;28;20045;-78
2022/10/14 12:13:01;;;;;;;7.10;2.25;;;;;;;;;;5001060;28;20042;-77
2022/10/14 12:15:28;;;;;;;8.98;2.30;;;;;;;;;;5001723;28;20053;-77
2022/10/14 12:17:55;;;;;;;6.47;2.30;;;;;;;;;;5003842;28;20827;-78
2022/10/14 12:20:25;;;;;;;8.20;2.13;;;;;;;;;;4996639;28;20035;-77
2022/10/14 12:22:52;;;;;;;7.97;2.50;;;;;;;;;;5000849;28;20133;-77
2022/10/14 12:25:20;;;;;;;7.15;2.30;;;;;;;;;;5004363;28;20049;-77
2022/10/14 12:27:47;;;;;;;7.70;2.78;;;;;;;;;;5007666;28;20030;-78
2022/10/14 12:30:32;;;;;;;8.30;2.50;;;;;;;;;;5003548;28;20792;-77
2022/10/14 12:33:00;;;;;;;6.78;2.60;;;;;;;;;;5008900;28;20381;-77
2022/10/14 12:35:44;;;;;;;8.05;2.95;;;;;;;;;;4999932;28;20061;-78
2022/10/14 12:38:11;;;;;;;5.40;2.40;;;;;;;;;;5000721;28;20137;-77
2022/10/14 12:40:38;;;;;;;11.10;3.60;;;;;;;;;;5003546;28;20034;-78
2022/10/14 12:43:11;;;;;;;9.93;3.15;;;;;;;;;;5005137;28;20039;-77
2022/10/14 12:45:46;;;;;;;11.02;3.05;;;;;;;;;;5004861;28;20544;-77
2022/10/14 12:48:15;;;;;;;6.72;2.75;;;;;;;;;;4999590;28;20729;-77
2022/10/14 12:50:42;;;;;;;10.00;4.40;;;;;;;;;;4999471;28;20038;-78
2022/10/14 12:53:16;;;;;;;12.15;6.28;;;;;;;;;;5008419;28;20706;-77
2022/10/14 12:55:50;;;;;;;11.00;4.75;;;;;;;;;;4996106;28;20044;-77
2022/10/14 12:58:36;;;;;;;10.07;5.22;;;;;;;;;;5002361;28;20061;-77
2022/10/14 13:01:13;;;;;;;13.43;6.00;;;;;;;;;;5001532;28;20030;-77
2022/10/14 13:03:43;;;;;;;13.82;3.42;;;;;;;;;;5007965;28;20026;-77
2022/10/14 13:06:28;;;;;;;10.57;3.60;;;;;;;;;;5002931;28;20153;-78
2022/10/14 13:09:23;;;;;;;8.55;3.03;;;;;;;;;;5006311;28;20084;-78
2022/10/14 13:11:51;;;;;;;12.27;3.25;;;;;;;;;;4967914;28;20051;-77
2022/10/14 13:14:20;;;;;;;6.95;2.80;;;;;;;;;;5006474;28;20045;-78
2022/10/14 13:16:52;;;;;;;10.98;3.55;;;;;;;;;;5004043;28;20049;-77
2022/10/14 13:19:18;;;;;;;;;;;;;;;;;;5008652;28;20029;-77
2022/10/14 13:21:44;;;;;;;7.85;3.60;;;;;;;;;;5006807;28;19963;-78
2022/10/14 13:24:16;;;;;;;11.45;3.22;;;;;;;;;;5008117;28;20057;-77
2022/10/14 13:26:42;;;;;;;;;;;;;;;;;;5006250;28;20675;-77
2022/10/14 13:29:20;;;;;;;10.25;3.80;;;;;;;;;;4997256;28;19920;-77
2022/10/14 13:32:06;;;;;;;8.35;2.97;;;;;;;;;;5000896;28;20029;-77
2022/10/14 13:34:33;;;;;;;8.40;3.42;;;;;;;;;;5006216;28;20026;-77
2022/10/14 13:37:18;;;;;;;10.13;3.58;;;;;;;;;;5003349;28;20034;-78
2022/10/14 13:39:44;;;;;;;7.70;2.90;;;;;;;;;;5002025;28;20547;-78
2022/10/14 13:42:17;;;;;;;10.27;3.50;;;;;;;;;;5001454;28;20057;-77
2022/10/14 13:44:43;;;;;;;8.93;3.33;;;;;;;;;;5002398;28;20037;-77
2022/10/14 13:47:12;;;;;;;8.10;3.28;;;;;;;;;;5003989;28;20037;-77
2022/10/14 13:49:39;;;;;;;11.45;4.13;;;;;;;;;;5004331;28;20133;-77
2022/10/14 13:52:09;;;;;;;10.13;3.47;;;;;;;;;;5003239;28;20065;-78
2022/10/14 13:54:35;;;;;;;11.25;3.72;;;;;;;;;;4994910;28;20040;-78
2022/10/14 13:57:12;;;;;;;11.00;3.33;;;;;;;;;;5001979;28;20034;-77
2022/10/14 13:59:45;;;;;;;13.50;3.72;;;;;;;;;;5008780;28;20034;-77
2022/10/14 14:02:16;;;;;;;7.25;2.80;;;;;;;;;;5004302;28;20117;-78
2022/10/14 14:04:50;;;;;;;12.20;3.35;;;;;;;;;;5004949;28;20037;-77
2022/10/14 14:07:17;;;;;;;8.52;2.55;;;;;;;;;;5003238;28;20109;-78
2022/10/14 14:09:48;;;;;;;8.18;3.25;;;;;;;;;;5011726;28;20076;-77
2022/10/14 14:12:15;;;;;;;9.90;3.08;;;;;;;;;;5006885;28;20069;-77
2022/10/14 14:14:42;;;;;;;10.43;3.53;;;;;;;;;;5007568;28;20046;-77
2022/10/14 14:17:24;;;;;;;10.65;3.42;;;;;;;;;;5009621;28;20042;-77
2022/10/14 14:19:51;;;;;;;7.70;3.22;;;;;;;;;;5009469;28;20029;-77
2022/10/14 14:22:27;;;;;;;9.20;3.35;;;;;;;;;;5010960;28;20048;-77
2022/10/14 14:25:09;;;;;;;14.70;3.00;;;;;;;;;;5006938;28;20037;-77
2022/10/14 14:27:35;;;;;;;9.20;3.20;;;;;;;;;;5005462;28;20113;-77
2022/10/14 14:30:07;;;;;;;6.32;2.72;;;;;;;;;;5004998;28;20492;-77
2022/10/14 14:32:33;;;;;;;;;;;;;;;;;;5003332;28;20042;-77
2022/10/14 14:34:59;;;;;;;7.55;3.47;;;;;;;;;;5004867;28;19971;-77
2022/10/14 14:37:28;;;;;;;11.57;4.00;;;;;;;;;;5003364;28;20062;-77
2022/10/14 14:40:06;;;;;;;11.23;3.50;;;;;;;;;;5010388;28;20042;-77
2022/10/14 14:42:38;;;;;;;12.57;3.97;;;;;;;;;;4999961;28;20029;-78
2022/10/14 14:45:11;;;;;;;10.95;4.20;;;;;;;;;;4997875;28;20045;-77
2022/10/14 14:47:38;;;;;;;9.57;2.88;;;;;;;;;;5008999;28;20532;-77
2022/10/14 14:50:04;;;;;;;10.85;2.47;;;;;;;;;;5001986;28;20066;-77
2022/10/14 14:52:31;;;;;;;11.05;3.03;;;;;;;;;;5010636;28;20045;-77